European Highlander — C6SN6 — position and weather

sailwx.info

Track history (hours):
 
Tides and Currents Weather Stations Pressure Air Temp Water Temp Dewpoint Dewpoint Depression Visibility Wind Speed Wind Dir Waves Ship Positions

European Highlander

Operator: P&O Irish Sea Ltd

Last reported at 2019-Nov-20 07:28 UTC. Time now 2019-Nov-20 10:10 UTC.
Position N 54°51' W 005°48'.

Length 161 m; draft 5.5 m.

Type: Ship. MMSI: 311404000.

Date/timePositionNaut miles runAvg speedWind from/ knotsBaromVisibWave heightAir tempDewpointWater temp
2019-Nov-20 07:28N 54°51' W 005°48'0 0.2
2019-Nov-20 06:28N 54°51' W 005°48'0 0.0
2019-Nov-19 22:20N 54°51' W 005°48'2011.4
2019-Nov-19 20:33N 55°00' W 005°16'0 0.2
2019-Nov-19 17:40N 55°00' W 005°16'2118.0
2019-Nov-19 16:30N 54°51' W 005°48'9 1.6
2019-Nov-19 10:58N 54°55' W 005°34'5 0.8
2019-Nov-19 04:07N 54°53' W 005°43'4 1.7
2019-Nov-19 02:01N 54°51' W 005°48'21 4.4
2019-Nov-18 21:12N 55°00' W 005°15'2116.8
2019-Nov-18 19:57N 54°51' W 005°48'0 0.2
2019-Nov-18 19:19N 54°51' W 005°48'0 0.0
2019-Nov-18 12:28N 54°51' W 005°48'20 2.6
2019-Nov-18 04:36N 55°00' W 005°17'20 3.8
2019-Nov-17 23:15N 54°51' W 005°48'0 0.0
2019-Nov-17 22:51N 54°51' W 005°48'0 0.0
2019-Nov-17 21:50N 54°51' W 005°48'0 0.0
2019-Nov-17 16:31N 54°51' W 005°48'0 0.0
2019-Nov-17 07:25N 54°51' W 005°48'0 0.0
2019-Nov-17 04:12N 54°51' W 005°48'0 0.0
2019-Nov-17 03:48N 54°51' W 005°48'0 0.0
2019-Nov-17 03:24N 54°51' W 005°48'0 0.0
2019-Nov-17 01:18N 54°51' W 005°48'7 1.7
2019-Nov-16 21:11N 54°54' W 005°38'1418.0
2019-Nov-16 20:26N 55°00' W 005°16'13 3.6
2019-Nov-16 16:50N 54°54' W 005°36'7 4.7
2019-Nov-16 15:16N 54°51' W 005°48'0 0.0
2019-Nov-16 03:17N 54°51' W 005°48'0 0.0
2019-Nov-16 02:05N 54°51' W 005°48'0 0.0
2019-Nov-15 19:58N 54°51' W 005°48'0 0.1
2019-Nov-15 18:47N 54°51' W 005°48'0 0.0
2019-Nov-15 13:25N 54°51' W 005°48'0 0.0
2019-Nov-14 22:17N 54°51' W 005°48'21 4.5
2019-Nov-14 17:38N 54°60' W 005°15'21 3.0
2019-Nov-14 10:31N 54°51' W 005°48'0 0.0
2019-Nov-14 03:56N 54°51' W 005°48'0 0.1
2019-Nov-14 01:55N 54°51' W 005°48'0 0.0
2019-Nov-13 20:15N 54°51' W 005°48'0 0.1
2019-Nov-13 18:17N 54°51' W 005°48'15 3.9
2019-Nov-13 14:26N 54°57' W 005°24'1120.1
2019-Nov-13 13:52N 54°53' W 005°42'4 2.8
2019-Nov-13 12:31N 54°51' W 005°48'9 2.0
2019-Nov-13 08:02N 54°54' W 005°34'9 4.4
2019-Nov-13 06:00N 54°51' W 005°48'0 0.0
2019-Nov-12 23:57N 54°51' W 005°48'0 0.2
2019-Nov-12 23:21N 54°51' W 005°48'0 0.0
2019-Nov-12 22:00N 54°51' W 005°48'21 5.0
2019-Nov-12 17:44N 54°60' W 005°15'21 9.5
2019-Nov-12 15:30N 54°51' W 005°48'16 4.5
2019-Nov-12 11:59N 55°01' W 005°26'1619.9
2019-Nov-12 11:12N 54°51' W 005°48'0 0.1
2019-Nov-12 10:01N 54°51' W 005°48'2016.5
2019-Nov-12 08:49N 55°02' W 005°20'20 3.6
2019-Nov-12 03:23N 54°51' W 005°48'0 0.0
2019-Nov-12 02:26N 54°51' W 005°48'1410.9
2019-Nov-12 01:11N 54°60' W 005°30'7 1.6
2019-Nov-11 20:59N 55°01' W 005°18'16 5.9
2019-Nov-11 18:18N 54°53' W 005°42'1720.4
2019-Nov-11 17:30N 55°01' W 005°17'21 4.3
2019-Nov-11 12:47N 54°51' W 005°48'2016.6
2019-Nov-11 11:36N 55°02' W 005°20'20 3.5
2019-Nov-11 05:59N 54°51' W 005°48'710.9
2019-Nov-11 05:23N 54°54' W 005°38'8 1.9
2019-Nov-11 00:52N 54°57' W 005°24'1118.0
2019-Nov-11 00:15N 54°53' W 005°42'4 4.3
2019-Nov-10 23:19N 54°51' W 005°48'0 0.0
2019-Nov-10 22:13N 54°51' W 005°48'0 0.0
2019-Nov-10 15:38N 54°51' W 005°48'23 3.4
2019-Nov-10 08:54N 55°01' W 005°12'  
Track history (hours):
 
Tides and Currents Weather Stations Pressure Air Temp Water Temp Dewpoint Dewpoint Depression Visibility Wind Speed Wind Dir Waves Ship Positions

European Highlander

Operator: P&O Irish Sea Ltd

Last reported at 2019-Nov-20 07:28 UTC. Time now 2019-Nov-20 10:10 UTC.
Position N 54°51' W 005°48'.

Length 161 m; draft 5.5 m.

Type: Ship. MMSI: 311404000.

Date/timePositionNaut miles runAvg speedWind from/ knotsBaromVisibWave heightAir tempDewpointWater temp
2019-Nov-20 07:28N 54°51' W 005°48'0 0.2
2019-Nov-20 06:28N 54°51' W 005°48'0 0.0
2019-Nov-19 22:20N 54°51' W 005°48'2011.4
2019-Nov-19 20:33N 55°00' W 005°16'0 0.2
2019-Nov-19 17:40N 55°00' W 005°16'2118.0
2019-Nov-19 16:30N 54°51' W 005°48'9 1.6
2019-Nov-19 10:58N 54°55' W 005°34'5 0.8
2019-Nov-19 04:07N 54°53' W 005°43'4 1.7
2019-Nov-19 02:01N 54°51' W 005°48'21 4.4
2019-Nov-18 21:12N 55°00' W 005°15'2116.8
2019-Nov-18 19:57N 54°51' W 005°48'0 0.2
2019-Nov-18 19:19N 54°51' W 005°48'0 0.0
2019-Nov-18 12:28N 54°51' W 005°48'20 2.6
2019-Nov-18 04:36N 55°00' W 005°17'20 3.8
2019-Nov-17 23:15N 54°51' W 005°48'0 0.0
2019-Nov-17 22:51N 54°51' W 005°48'0 0.0
2019-Nov-17 21:50N 54°51' W 005°48'0 0.0
2019-Nov-17 16:31N 54°51' W 005°48'0 0.0
2019-Nov-17 07:25N 54°51' W 005°48'0 0.0
2019-Nov-17 04:12N 54°51' W 005°48'0 0.0
2019-Nov-17 03:48N 54°51' W 005°48'0 0.0
2019-Nov-17 03:24N 54°51' W 005°48'0 0.0
2019-Nov-17 01:18N 54°51' W 005°48'7 1.7
2019-Nov-16 21:11N 54°54' W 005°38'1418.0
2019-Nov-16 20:26N 55°00' W 005°16'13 3.6
2019-Nov-16 16:50N 54°54' W 005°36'7 4.7
2019-Nov-16 15:16N 54°51' W 005°48'0 0.0
2019-Nov-16 03:17N 54°51' W 005°48'0 0.0
2019-Nov-16 02:05N 54°51' W 005°48'0 0.0
2019-Nov-15 19:58N 54°51' W 005°48'0 0.1
2019-Nov-15 18:47N 54°51' W 005°48'0 0.0
2019-Nov-15 13:25N 54°51' W 005°48'0 0.0
2019-Nov-14 22:17N 54°51' W 005°48'21 4.5
2019-Nov-14 17:38N 54°60' W 005°15'21 3.0
2019-Nov-14 10:31N 54°51' W 005°48'0 0.0
2019-Nov-14 03:56N 54°51' W 005°48'0 0.1
2019-Nov-14 01:55N 54°51' W 005°48'0 0.0
2019-Nov-13 20:15N 54°51' W 005°48'0 0.1
2019-Nov-13 18:17N 54°51' W 005°48'15 3.9
2019-Nov-13 14:26N 54°57' W 005°24'1120.1
2019-Nov-13 13:52N 54°53' W 005°42'4 2.8
2019-Nov-13 12:31N 54°51' W 005°48'9 2.0
2019-Nov-13 08:02N 54°54' W 005°34'9 4.4
2019-Nov-13 06:00N 54°51' W 005°48'0 0.0
2019-Nov-12 23:57N 54°51' W 005°48'0 0.2
2019-Nov-12 23:21N 54°51' W 005°48'0 0.0
2019-Nov-12 22:00N 54°51' W 005°48'21 5.0
2019-Nov-12 17:44N 54°60' W 005°15'21 9.5
2019-Nov-12 15:30N 54°51' W 005°48'16 4.5
2019-Nov-12 11:59N 55°01' W 005°26'1619.9
2019-Nov-12 11:12N 54°51' W 005°48'0 0.1
2019-Nov-12 10:01N 54°51' W 005°48'2016.5
2019-Nov-12 08:49N 55°02' W 005°20'20 3.6
2019-Nov-12 03:23N 54°51' W 005°48'0 0.0
2019-Nov-12 02:26N 54°51' W 005°48'1410.9
2019-Nov-12 01:11N 54°60' W 005°30'7 1.6
2019-Nov-11 20:59N 55°01' W 005°18'16 5.9
2019-Nov-11 18:18N 54°53' W 005°42'1720.4
2019-Nov-11 17:30N 55°01' W 005°17'21 4.3
2019-Nov-11 12:47N 54°51' W 005°48'2016.6
2019-Nov-11 11:36N 55°02' W 005°20'20 3.5
2019-Nov-11 05:59N 54°51' W 005°48'710.9
2019-Nov-11 05:23N 54°54' W 005°38'8 1.9
2019-Nov-11 00:52N 54°57' W 005°24'1118.0
2019-Nov-11 00:15N 54°53' W 005°42'4 4.3
2019-Nov-10 23:19N 54°51' W 005°48'0 0.0
2019-Nov-10 22:13N 54°51' W 005°48'0 0.0
2019-Nov-10 15:38N 54°51' W 005°48'23 3.4
2019-Nov-10 08:54N 55°01' W 005°12'  

Dump ship's entire track history